Time;durP1;ratioP1;P1;durP2;ratioP2;P2;SDS_P1;SDS_P2;PMS_P1;PMS_P2;Temp;Humidity;BMP_temperature;BMP_pressure;BME280_temperature;BME280_humidity;BME280_pressure;Samples;Min_cycle;Max_cycle;Signal;HPM_P1;HPM_P2
2021/04/22 00:00:16;;;;;;;0.20;0.20;;;;;;;;;;5108310;28;20208;-69
2021/04/22 00:02:43;;;;;;;0.20;0.20;;;;;;;;;;5106350;28;20226;-69
2021/04/22 00:05:18;;;;;;;0.20;0.20;;;;;;;;;;5104002;28;20234;-68
2021/04/22 00:07:44;;;;;;;0.20;0.20;;;;;;;;;;5105847;28;20341;-68
2021/04/22 00:10:11;;;;;;;0.20;0.20;;;;;;;;;;5118949;28;20207;-69
2021/04/22 00:12:37;;;;;;;0.20;0.20;;;;;;;;;;5109073;27;20200;-68
2021/04/22 00:15:05;;;;;;;0.20;0.20;;;;;;;;;;5125972;28;20436;-68
2021/04/22 00:17:30;;;;;;;0.20;0.20;;;;;;;;;;5122238;28;20388;-68
2021/04/22 00:19:57;;;;;;;0.20;0.20;;;;;;;;;;5125733;28;20210;-70
2021/04/22 00:22:23;;;;;;;0.20;0.20;;;;;;;;;;5111000;28;20226;-70
2021/04/22 00:24:49;;;;;;;0.20;0.20;;;;;;;;;;5112249;27;20231;-69
2021/04/22 00:27:14;;;;;;;0.57;0.57;;;;;;;;;;5124588;28;20205;-69
2021/04/22 00:29:40;;;;;;;0.40;0.40;;;;;;;;;;5117304;28;20201;-69
2021/04/22 00:32:06;;;;;;;0.20;0.20;;;;;;;;;;5140536;27;20203;-69
2021/04/22 00:34:32;;;;;;;0.20;0.20;;;;;;;;;;5136181;27;20190;-69
2021/04/22 00:36:58;;;;;;;0.20;0.20;;;;;;;;;;5112752;28;20446;-70
2021/04/22 00:39:24;;;;;;;0.10;0.10;;;;;;;;;;5110455;28;20217;-69
2021/04/22 00:41:50;;;;;;;0.17;0.17;;;;;;;;;;5116383;28;20202;-70
2021/04/22 00:44:15;;;;;;;0.20;0.20;;;;;;;;;;5126347;28;20220;-70
2021/04/22 00:46:41;;;;;;;0.20;0.20;;;;;;;;;;5127723;28;20203;-70
2021/04/22 00:49:07;;;;;;;0.20;0.20;;;;;;;;;;5118623;28;20214;-69
2021/04/22 00:51:32;;;;;;;0.20;0.20;;;;;;;;;;5115559;28;20275;-69
2021/04/22 00:54:00;;;;;;;0.40;0.40;;;;;;;;;;5112674;28;20273;-70
2021/04/22 00:56:25;;;;;;;0.20;0.20;;;;;;;;;;5120613;28;20210;-69
2021/04/22 00:58:51;;;;;;;0.20;0.20;;;;;;;;;;5120073;28;20208;-70
2021/04/22 01:01:17;;;;;;;0.20;0.20;;;;;;;;;;5127373;28;20199;-70
2021/04/22 01:03:43;;;;;;;0.20;0.20;;;;;;;;;;5117299;28;20221;-69
2021/04/22 01:06:10;;;;;;;0.70;0.70;;;;;;;;;;5106761;28;20206;-70
2021/04/22 01:08:35;;;;;;;0.20;0.20;;;;;;;;;;5116957;28;20207;-69
2021/04/22 01:11:04;;;;;;;0.20;0.20;;;;;;;;;;5124085;28;20433;-69
2021/04/22 01:13:30;;;;;;;0.20;0.20;;;;;;;;;;5114014;28;20405;-70
2021/04/22 01:15:56;;;;;;;0.20;0.20;;;;;;;;;;5123647;28;20206;-69
2021/04/22 01:18:22;;;;;;;0.20;0.20;;;;;;;;;;5125015;28;20207;-69
2021/04/22 01:20:48;;;;;;;0.20;0.20;;;;;;;;;;5117713;28;20200;-70
2021/04/22 01:23:15;;;;;;;0.20;0.20;;;;;;;;;;5116128;28;20235;-69
2021/04/22 01:25:43;;;;;;;0.20;0.20;;;;;;;;;;5118195;28;20477;-69
2021/04/22 01:28:10;;;;;;;0.20;0.20;;;;;;;;;;5115744;28;20229;-69
2021/04/22 01:30:38;;;;;;;0.20;0.20;;;;;;;;;;5124399;28;20209;-69
2021/04/22 01:33:04;;;;;;;0.20;0.20;;;;;;;;;;5115614;28;20512;-70
2021/04/22 01:35:31;;;;;;;0.20;0.20;;;;;;;;;;5107847;28;20242;-69
2021/04/22 01:37:57;;;;;;;0.20;0.20;;;;;;;;;;5106575;28;20203;-68
2021/04/22 01:40:24;;;;;;;0.20;0.20;;;;;;;;;;5119287;28;20217;-70
2021/04/22 01:42:50;;;;;;;0.20;0.20;;;;;;;;;;5111326;28;20233;-69
2021/04/22 01:45:16;;;;;;;0.20;0.20;;;;;;;;;;5110724;28;20220;-69
2021/04/22 01:47:42;;;;;;;0.10;0.10;;;;;;;;;;5119126;28;20245;-69
2021/04/22 01:50:09;;;;;;;0.20;0.20;;;;;;;;;;5126258;28;20211;-69
2021/04/22 01:52:35;;;;;;;0.20;0.20;;;;;;;;;;5123579;28;20224;-69
2021/04/22 01:55:01;;;;;;;0.20;0.20;;;;;;;;;;5110319;28;20210;-69
2021/04/22 01:57:28;;;;;;;0.20;0.20;;;;;;;;;;5121147;28;20226;-69
2021/04/22 01:59:53;;;;;;;0.20;0.20;;;;;;;;;;5126122;28;20223;-69
2021/04/22 02:02:19;;;;;;;0.20;0.20;;;;;;;;;;5111760;28;20268;-69
2021/04/22 02:04:45;;;;;;;0.20;0.20;;;;;;;;;;5115638;27;20303;-70
2021/04/22 02:07:11;;;;;;;0.20;0.20;;;;;;;;;;5114829;28;20372;-69
2021/04/22 02:09:37;;;;;;;0.20;0.20;;;;;;;;;;5115548;28;20201;-69
2021/04/22 02:12:03;;;;;;;0.20;0.20;;;;;;;;;;5112552;28;20271;-70
2021/04/22 02:14:30;;;;;;;0.20;0.20;;;;;;;;;;5117504;28;20449;-69
2021/04/22 02:16:55;;;;;;;0.20;0.20;;;;;;;;;;5113312;28;20212;-69
2021/04/22 02:19:22;;;;;;;0.93;0.63;;;;;;;;;;5117679;28;20211;-70
2021/04/22 02:21:48;;;;;;;0.40;0.40;;;;;;;;;;5113516;28;20222;-69
2021/04/22 02:24:13;;;;;;;0.10;0.10;;;;;;;;;;5112594;28;20227;-70
2021/04/22 02:26:39;;;;;;;0.20;0.20;;;;;;;;;;5115802;28;20207;-68
2021/04/22 02:29:05;;;;;;;0.20;0.20;;;;;;;;;;5109464;28;20227;-69
2021/04/22 02:31:32;;;;;;;0.20;0.20;;;;;;;;;;5110617;28;20219;-68
2021/04/22 02:33:57;;;;;;;0.33;0.33;;;;;;;;;;5114428;28;20204;-68
2021/04/22 02:36:23;;;;;;;0.20;0.20;;;;;;;;;;5118462;27;20202;-68
2021/04/22 02:38:49;;;;;;;0.40;0.40;;;;;;;;;;5108938;28;20219;-69
2021/04/22 02:41:15;;;;;;;0.20;0.20;;;;;;;;;;5110123;28;20467;-69
2021/04/22 02:43:40;;;;;;;0.20;0.20;;;;;;;;;;5111506;28;20201;-69
2021/04/22 02:46:06;;;;;;;0.20;0.20;;;;;;;;;;5110856;28;20235;-70
2021/04/22 02:48:33;;;;;;;0.17;0.17;;;;;;;;;;5105968;28;20492;-68
2021/04/22 02:51:00;;;;;;;0.20;0.20;;;;;;;;;;5112770;28;20211;-69
2021/04/22 02:53:26;;;;;;;2.10;2.10;;;;;;;;;;5115327;28;20226;-69
2021/04/22 02:55:52;;;;;;;0.20;0.20;;;;;;;;;;5117923;27;20203;-69
2021/04/22 02:58:18;;;;;;;0.20;0.20;;;;;;;;;;5115040;28;20206;-70
2021/04/22 03:00:45;;;;;;;0.13;0.13;;;;;;;;;;5113307;28;20198;-69
2021/04/22 03:03:11;;;;;;;0.20;0.20;;;;;;;;;;5114141;28;20225;-71
2021/04/22 03:05:38;;;;;;;0.20;0.20;;;;;;;;;;5116667;28;20590;-70
2021/04/22 03:08:04;;;;;;;0.20;0.20;;;;;;;;;;5113059;28;20266;-69
2021/04/22 03:10:31;;;;;;;0.20;0.20;;;;;;;;;;5110789;27;20208;-68
2021/04/22 03:12:57;;;;;;;0.20;0.20;;;;;;;;;;5112041;27;20290;-69
2021/04/22 03:15:23;;;;;;;0.20;0.20;;;;;;;;;;5109586;28;20491;-68
2021/04/22 03:17:49;;;;;;;0.20;0.20;;;;;;;;;;5109212;28;20212;-68
2021/04/22 03:20:15;;;;;;;0.20;0.20;;;;;;;;;;5107491;28;20266;-69
2021/04/22 03:22:42;;;;;;;0.20;0.20;;;;;;;;;;5115040;28;20227;-68
2021/04/22 03:25:10;;;;;;;0.30;0.30;;;;;;;;;;5113499;28;20512;-69
2021/04/22 03:27:36;;;;;;;0.20;0.20;;;;;;;;;;5115769;27;20200;-69
2021/04/22 03:30:02;;;;;;;0.50;0.50;;;;;;;;;;5119136;27;20226;-69
2021/04/22 03:32:27;;;;;;;0.20;0.20;;;;;;;;;;5111625;28;20203;-70
2021/04/22 03:34:53;;;;;;;0.20;0.20;;;;;;;;;;5116208;28;20198;-70
2021/04/22 03:37:19;;;;;;;0.20;0.20;;;;;;;;;;5107961;28;20248;-68
2021/04/22 03:39:46;;;;;;;0.20;0.20;;;;;;;;;;5109515;28;20212;-69
2021/04/22 03:42:12;;;;;;;0.20;0.20;;;;;;;;;;5107608;28;20204;-69
2021/04/22 03:44:38;;;;;;;0.20;0.20;;;;;;;;;;5116610;28;20226;-70
2021/04/22 03:47:03;;;;;;;0.20;0.20;;;;;;;;;;5111551;28;20227;-71
2021/04/22 03:49:29;;;;;;;0.20;0.20;;;;;;;;;;5113584;28;20229;-69
2021/04/22 03:51:55;;;;;;;0.20;0.20;;;;;;;;;;5105787;28;20204;-69
2021/04/22 03:54:21;;;;;;;0.20;0.20;;;;;;;;;;5114729;28;20519;-69
2021/04/22 03:56:47;;;;;;;0.20;0.20;;;;;;;;;;5123188;28;20206;-70
2021/04/22 03:59:13;;;;;;;0.40;0.40;;;;;;;;;;5116463;28;20199;-69
2021/04/22 04:01:39;;;;;;;0.20;0.20;;;;;;;;;;5112729;28;20207;-70
2021/04/22 04:04:05;;;;;;;0.20;0.20;;;;;;;;;;5106454;28;20271;-69
2021/04/22 04:06:31;;;;;;;2.00;2.00;;;;;;;;;;5112123;28;20497;-69
2021/04/22 04:08:57;;;;;;;0.20;0.20;;;;;;;;;;5105960;28;20512;-69
2021/04/22 04:11:23;;;;;;;1.50;1.50;;;;;;;;;;5108832;28;20204;-69
2021/04/22 04:13:49;;;;;;;0.20;0.20;;;;;;;;;;5121278;28;20340;-69
2021/04/22 04:16:15;;;;;;;0.20;0.20;;;;;;;;;;5112476;28;20208;-68
2021/04/22 04:18:41;;;;;;;0.20;0.20;;;;;;;;;;5112360;28;20236;-69
2021/04/22 04:21:06;;;;;;;0.20;0.20;;;;;;;;;;5110094;28;20206;-70
2021/04/22 04:23:32;;;;;;;2.00;1.90;;;;;;;;;;5108808;28;20248;-70
2021/04/22 04:25:58;;;;;;;0.27;0.27;;;;;;;;;;5113527;28;20255;-71
2021/04/22 04:28:24;;;;;;;0.20;0.20;;;;;;;;;;5112088;28;20203;-69
2021/04/22 04:30:51;;;;;;;0.20;0.20;;;;;;;;;;5117137;28;20478;-72
2021/04/22 04:33:17;;;;;;;0.20;0.20;;;;;;;;;;5111134;28;20253;-69
2021/04/22 04:35:42;;;;;;;0.20;0.20;;;;;;;;;;5111544;28;20271;-69
2021/04/22 04:38:09;;;;;;;0.20;0.20;;;;;;;;;;5119547;28;20253;-69
2021/04/22 04:40:35;;;;;;;0.33;0.33;;;;;;;;;;5108561;28;20213;-71
2021/04/22 04:43:01;;;;;;;0.20;0.20;;;;;;;;;;5115557;28;20531;-69
2021/04/22 04:45:27;;;;;;;0.20;0.20;;;;;;;;;;5119119;28;20219;-70
2021/04/22 04:47:54;;;;;;;0.20;0.20;;;;;;;;;;5114636;28;20206;-69
2021/04/22 04:50:20;;;;;;;0.20;0.20;;;;;;;;;;5114119;28;20207;-69
2021/04/22 04:52:46;;;;;;;0.10;0.10;;;;;;;;;;5114769;28;20246;-69
2021/04/22 04:55:12;;;;;;;1.30;1.30;;;;;;;;;;5113745;28;20487;-70
2021/04/22 04:57:38;;;;;;;0.20;0.20;;;;;;;;;;5115547;28;20200;-70
2021/04/22 05:00:04;;;;;;;0.20;0.20;;;;;;;;;;5115413;27;20211;-69
2021/04/22 05:02:30;;;;;;;0.20;0.20;;;;;;;;;;5109375;28;20201;-69
2021/04/22 05:04:57;;;;;;;0.20;0.20;;;;;;;;;;5118215;28;20265;-69
2021/04/22 05:07:22;;;;;;;0.30;0.30;;;;;;;;;;5117972;27;20204;-70
2021/04/22 05:09:48;;;;;;;0.20;0.20;;;;;;;;;;5117041;28;20248;-69
2021/04/22 05:12:14;;;;;;;0.20;0.20;;;;;;;;;;5112931;27;20500;-69
2021/04/22 05:14:39;;;;;;;0.20;0.20;;;;;;;;;;5115168;27;20215;-69
2021/04/22 05:17:05;;;;;;;0.20;0.20;;;;;;;;;;5113554;28;20235;-68
2021/04/22 05:19:31;;;;;;;0.20;0.20;;;;;;;;;;5112108;28;20204;-69
2021/04/22 05:21:58;;;;;;;0.20;0.20;;;;;;;;;;5112810;28;20210;-68
2021/04/22 05:24:23;;;;;;;0.20;0.20;;;;;;;;;;5117039;28;20484;-69
2021/04/22 05:26:49;;;;;;;0.20;0.20;;;;;;;;;;5116552;28;20247;-69
2021/04/22 05:29:15;;;;;;;0.20;0.20;;;;;;;;;;5121305;27;20502;-68
2021/04/22 05:31:40;;;;;;;0.20;0.20;;;;;;;;;;5119326;28;20200;-68
2021/04/22 05:34:06;;;;;;;0.20;0.20;;;;;;;;;;5113016;28;20200;-69
2021/04/22 05:36:32;;;;;;;0.20;0.20;;;;;;;;;;5113994;28;20212;-69
2021/04/22 05:38:59;;;;;;;0.13;0.13;;;;;;;;;;5114206;28;20248;-68
2021/04/22 05:41:24;;;;;;;0.20;0.20;;;;;;;;;;5119535;27;20203;-70
2021/04/22 05:43:50;;;;;;;0.20;0.20;;;;;;;;;;5106499;28;20413;-72
2021/04/22 05:46:16;;;;;;;0.20;0.20;;;;;;;;;;5115388;27;20199;-69
2021/04/22 05:48:42;;;;;;;0.20;0.20;;;;;;;;;;5112237;28;20242;-69
2021/04/22 05:51:07;;;;;;;0.20;0.20;;;;;;;;;;5114357;28;20207;-69
2021/04/22 05:53:33;;;;;;;0.10;0.10;;;;;;;;;;5111172;28;20212;-68
2021/04/22 05:56:00;;;;;;;0.20;0.20;;;;;;;;;;5107486;28;20233;-69
2021/04/22 05:58:26;;;;;;;0.20;0.20;;;;;;;;;;5115119;27;20216;-70
2021/04/22 06:00:51;;;;;;;0.10;0.10;;;;;;;;;;5107889;28;20217;-68
2021/04/22 06:03:17;;;;;;;0.20;0.20;;;;;;;;;;5119833;28;20220;-70
2021/04/22 06:05:43;;;;;;;0.20;0.20;;;;;;;;;;5124339;27;20237;-69
2021/04/22 06:08:09;;;;;;;0.20;0.20;;;;;;;;;;5110903;27;20205;-70
2021/04/22 06:10:35;;;;;;;0.20;0.20;;;;;;;;;;5109769;27;20212;-71
2021/04/22 06:13:01;;;;;;;0.20;0.20;;;;;;;;;;5109658;28;20244;-69
2021/04/22 06:15:27;;;;;;;0.20;0.20;;;;;;;;;;5117051;28;20240;-70
2021/04/22 06:17:53;;;;;;;0.20;0.20;;;;;;;;;;5111267;28;20516;-69
2021/04/22 06:20:20;;;;;;;3.30;2.90;;;;;;;;;;5113841;27;20227;-69
2021/04/22 06:22:46;;;;;;;0.20;0.20;;;;;;;;;;5126880;27;20235;-70
2021/04/22 06:25:12;;;;;;;0.20;0.20;;;;;;;;;;5111226;28;20495;-70
2021/04/22 06:27:38;;;;;;;0.20;0.20;;;;;;;;;;5117410;28;20482;-68
2021/04/22 06:30:05;;;;;;;0.20;0.20;;;;;;;;;;5114676;28;20210;-69
2021/04/22 06:32:31;;;;;;;5.00;1.47;;;;;;;;;;5119004;27;20213;-68
2021/04/22 06:34:57;;;;;;;0.20;0.20;;;;;;;;;;5126109;27;20208;-70
2021/04/22 06:37:24;;;;;;;0.10;0.10;;;;;;;;;;5118762;27;20243;-65
2021/04/22 06:39:50;;;;;;;0.20;0.20;;;;;;;;;;5115988;28;20220;-65
2021/04/22 06:42:16;;;;;;;0.10;0.10;;;;;;;;;;5118636;28;20236;-64
2021/04/22 06:44:43;;;;;;;0.20;0.20;;;;;;;;;;5127736;27;20439;-67
2021/04/22 06:47:09;;;;;;;0.20;0.20;;;;;;;;;;5112537;27;20208;-64
2021/04/22 06:49:35;;;;;;;0.20;0.20;;;;;;;;;;5106328;28;20255;-66
2021/04/22 06:52:01;;;;;;;0.20;0.20;;;;;;;;;;5113917;27;20215;-70
2021/04/22 06:54:27;;;;;;;0.10;0.10;;;;;;;;;;5109589;28;20199;-72
2021/04/22 06:56:53;;;;;;;0.30;0.30;;;;;;;;;;5110368;27;20206;-69
2021/04/22 06:59:18;;;;;;;0.20;0.20;;;;;;;;;;5115633;28;20211;-70
2021/04/22 07:01:44;;;;;;;0.10;0.10;;;;;;;;;;5110421;27;20514;-70
2021/04/22 07:04:11;;;;;;;0.20;0.20;;;;;;;;;;5115403;27;20201;-69
2021/04/22 07:06:37;;;;;;;0.20;0.20;;;;;;;;;;5112129;28;20264;-70
2021/04/22 07:09:03;;;;;;;0.20;0.20;;;;;;;;;;5118270;28;20472;-70
2021/04/22 07:11:29;;;;;;;0.10;0.10;;;;;;;;;;5122462;28;20254;-69
2021/04/22 07:13:55;;;;;;;0.20;0.20;;;;;;;;;;5117005;28;20213;-69
2021/04/22 07:16:20;;;;;;;0.20;0.20;;;;;;;;;;5108975;28;20221;-71
2021/04/22 07:18:46;;;;;;;0.17;0.17;;;;;;;;;;5117312;28;20205;-69
2021/04/22 07:21:13;;;;;;;0.10;0.10;;;;;;;;;;5119555;28;20209;-70
2021/04/22 07:23:40;;;;;;;0.20;0.20;;;;;;;;;;5117091;28;20226;-70
2021/04/22 07:26:05;;;;;;;0.20;0.20;;;;;;;;;;5140910;27;20220;-71
2021/04/22 07:28:32;;;;;;;0.10;0.10;;;;;;;;;;5128630;27;20456;-71
2021/04/22 07:30:58;;;;;;;7.47;6.83;;;;;;;;;;5118823;28;20395;-71
2021/04/22 07:33:24;;;;;;;0.10;0.10;;;;;;;;;;5114996;28;20208;-70
2021/04/22 07:35:50;;;;;;;0.10;0.10;;;;;;;;;;5107075;28;20212;-70
2021/04/22 07:38:17;;;;;;;0.10;0.10;;;;;;;;;;5111077;27;20197;-71
2021/04/22 07:40:43;;;;;;;0.17;0.17;;;;;;;;;;5111872;27;20211;-71
2021/04/22 07:43:10;;;;;;;0.77;0.40;;;;;;;;;;5109498;28;20201;-72
2021/04/22 07:45:37;;;;;;;0.10;0.10;;;;;;;;;;5111425;28;20417;-72
2021/04/22 07:48:03;;;;;;;0.20;0.20;;;;;;;;;;5109887;28;20217;-71
2021/04/22 07:50:30;;;;;;;0.20;0.20;;;;;;;;;;5114766;28;20268;-70
2021/04/22 07:52:57;;;;;;;7.73;4.53;;;;;;;;;;5117745;27;20212;-72
2021/04/22 07:55:27;;;;;;;0.20;0.20;;;;;;;;;;5109907;28;20267;-70
2021/04/22 07:57:53;;;;;;;2.17;1.27;;;;;;;;;;5110040;27;20218;-71
2021/04/22 08:00:20;;;;;;;0.20;0.20;;;;;;;;;;5113135;28;20213;-71
2021/04/22 08:02:48;;;;;;;0.20;0.20;;;;;;;;;;5125705;28;20537;-72
2021/04/22 08:05:15;;;;;;;0.20;0.20;;;;;;;;;;5107722;28;20230;-72
2021/04/22 08:07:41;;;;;;;0.20;0.20;;;;;;;;;;5106888;28;20208;-69
2021/04/22 08:10:09;;;;;;;0.20;0.20;;;;;;;;;;5120853;28;20205;-69
2021/04/22 08:12:36;;;;;;;0.20;0.20;;;;;;;;;;5109074;28;20202;-70
2021/04/22 08:15:03;;;;;;;0.10;0.10;;;;;;;;;;5107713;28;20270;-72
2021/04/22 08:17:29;;;;;;;0.20;0.20;;;;;;;;;;5120662;28;20205;-72
2021/04/22 08:19:55;;;;;;;0.30;0.30;;;;;;;;;;5123398;28;20490;-73
2021/04/22 08:22:21;;;;;;;0.10;0.10;;;;;;;;;;5121635;28;20246;-71
2021/04/22 08:24:48;;;;;;;0.10;0.10;;;;;;;;;;5113963;28;20389;-73
2021/04/22 08:27:14;;;;;;;1.90;1.50;;;;;;;;;;5121245;28;20218;-72
2021/04/22 08:29:41;;;;;;;0.20;0.20;;;;;;;;;;5114789;28;20218;-74
2021/04/22 08:32:07;;;;;;;0.10;0.10;;;;;;;;;;5122592;28;20254;-69
2021/04/22 08:34:33;;;;;;;0.10;0.10;;;;;;;;;;5124721;27;20484;-70
2021/04/22 08:37:03;;;;;;;0.10;0.10;;;;;;;;;;5120020;27;20515;-72
2021/04/22 08:39:29;;;;;;;0.20;0.20;;;;;;;;;;5118045;28;20394;-71
2021/04/22 08:41:55;;;;;;;0.10;0.10;;;;;;;;;;5121877;28;20486;-71
2021/04/22 08:44:21;;;;;;;0.10;0.10;;;;;;;;;;5108857;27;20199;-70
2021/04/22 08:46:49;;;;;;;0.17;0.17;;;;;;;;;;5113210;27;20530;-71
2021/04/22 08:49:15;;;;;;;0.20;0.20;;;;;;;;;;5119683;27;20202;-70
2021/04/22 08:51:41;;;;;;;0.67;0.67;;;;;;;;;;5115699;28;20208;-73
2021/04/22 08:54:07;;;;;;;0.10;0.10;;;;;;;;;;5111662;27;20245;-72
2021/04/22 08:56:37;;;;;;;0.10;0.10;;;;;;;;;;5118099;28;20199;-72
2021/04/22 08:59:03;;;;;;;0.10;0.10;;;;;;;;;;5127368;28;20197;-73
2021/04/22 09:01:31;;;;;;;0.10;0.10;;;;;;;;;;5120102;28;20207;-70
2021/04/22 09:04:00;;;;;;;0.20;0.20;;;;;;;;;;5127341;28;20198;-70
2021/04/22 09:06:26;;;;;;;0.20;0.20;;;;;;;;;;5123949;28;20411;-72
2021/04/22 09:08:53;;;;;;;0.20;0.20;;;;;;;;;;5127323;27;20208;-72
2021/04/22 09:11:20;;;;;;;0.10;0.10;;;;;;;;;;5126682;27;20206;-72
2021/04/22 09:13:47;;;;;;;0.20;0.20;;;;;;;;;;5128074;27;20255;-71
2021/04/22 09:16:14;;;;;;;0.10;0.10;;;;;;;;;;5112282;28;20195;-73
2021/04/22 09:18:41;;;;;;;0.10;0.10;;;;;;;;;;5106676;28;20238;-71
2021/04/22 09:21:17;;;;;;;0.10;0.10;;;;;;;;;;5130624;27;20199;-71
2021/04/22 09:23:54;;;;;;;0.10;0.10;;;;;;;;;;5122130;27;20229;-72
2021/04/22 09:26:20;;;;;;;0.10;0.10;;;;;;;;;;5125372;27;20286;-70
2021/04/22 09:28:47;;;;;;;0.10;0.10;;;;;;;;;;5108605;28;20211;-70
2021/04/22 09:31:25;;;;;;;2.27;2.23;;;;;;;;;;5126537;28;20205;-70
2021/04/22 09:34:01;;;;;;;0.10;0.10;;;;;;;;;;5113045;28;20207;-70
2021/04/22 09:36:38;;;;;;;0.10;0.10;;;;;;;;;;5126647;28;20275;-72
2021/04/22 09:39:05;;;;;;;0.10;0.10;;;;;;;;;;5120065;28;20220;-71
2021/04/22 09:41:33;;;;;;;0.10;0.10;;;;;;;;;;5109023;28;20200;-70
2021/04/22 09:44:04;;;;;;;0.10;0.10;;;;;;;;;;5116268;28;20224;-69
2021/04/22 09:46:30;;;;;;;0.10;0.10;;;;;;;;;;5129010;27;20262;-72
2021/04/22 09:48:57;;;;;;;0.10;0.10;;;;;;;;;;5113960;27;20198;-72
2021/04/22 09:51:29;;;;;;;0.10;0.10;;;;;;;;;;5110376;27;20274;-73
2021/04/22 09:54:04;;;;;;;0.10;0.10;;;;;;;;;;5126259;28;20235;-72
2021/04/22 09:56:39;;;;;;;0.23;0.23;;;;;;;;;;5121731;27;20236;-73
2021/04/22 09:59:07;;;;;;;0.10;0.10;;;;;;;;;;5126590;27;20241;-73
2021/04/22 10:01:33;;;;;;;0.10;0.10;;;;;;;;;;5130414;27;20202;-73
2021/04/22 10:03:59;;;;;;;0.10;0.10;;;;;;;;;;5132562;27;20209;-72
2021/04/22 10:06:25;;;;;;;0.10;0.10;;;;;;;;;;5124875;27;20266;-75
2021/04/22 10:08:51;;;;;;;0.10;0.10;;;;;;;;;;5126284;28;20210;-74
2021/04/22 10:11:18;;;;;;;0.10;0.10;;;;;;;;;;5130932;27;20232;-73
2021/04/22 10:13:45;;;;;;;0.10;0.10;;;;;;;;;;5124476;28;20224;-75
2021/04/22 10:16:11;;;;;;;0.10;0.10;;;;;;;;;;5107463;28;20208;-74
2021/04/22 10:18:38;;;;;;;0.10;0.10;;;;;;;;;;5117767;28;20205;-74
2021/04/22 10:21:04;;;;;;;0.10;0.10;;;;;;;;;;5109781;28;20250;-73
2021/04/22 10:23:30;;;;;;;0.20;0.20;;;;;;;;;;5118747;28;20236;-73
2021/04/22 10:25:56;;;;;;;0.10;0.10;;;;;;;;;;5132527;27;20416;-73
2021/04/22 10:28:24;;;;;;;0.10;0.10;;;;;;;;;;5125273;28;20203;-74
2021/04/22 10:30:52;;;;;;;0.10;0.10;;;;;;;;;;5129195;27;20211;-76
2021/04/22 10:33:19;;;;;;;0.97;0.97;;;;;;;;;;5125375;28;20232;-71
2021/04/22 10:35:45;;;;;;;0.10;0.10;;;;;;;;;;5114168;28;20204;-75
2021/04/22 10:38:12;;;;;;;0.10;0.10;;;;;;;;;;5117548;27;20206;-78
2021/04/22 10:40:39;;;;;;;0.10;0.10;;;;;;;;;;5115414;27;20221;-75
2021/04/22 10:43:06;;;;;;;0.10;0.10;;;;;;;;;;5125923;27;20197;-77
2021/04/22 10:45:35;;;;;;;0.10;0.10;;;;;;;;;;5132014;27;20297;-74
2021/04/22 10:48:01;;;;;;;0.10;0.10;;;;;;;;;;5123578;28;20273;-75
2021/04/22 10:50:29;;;;;;;0.10;0.10;;;;;;;;;;5105055;28;20279;-74
2021/04/22 10:52:57;;;;;;;0.10;0.10;;;;;;;;;;5107041;28;20204;-74
2021/04/22 10:55:24;;;;;;;0.10;0.10;;;;;;;;;;5112564;28;20437;-77
2021/04/22 10:57:50;;;;;;;0.10;0.10;;;;;;;;;;5125002;28;20380;-75
2021/04/22 11:00:17;;;;;;;0.10;0.10;;;;;;;;;;5136032;27;20200;-75
2021/04/22 11:02:45;;;;;;;0.10;0.10;;;;;;;;;;5134646;27;20478;-76
2021/04/22 11:05:22;;;;;;;0.10;0.10;;;;;;;;;;5135266;27;20223;-76
2021/04/22 11:07:56;;;;;;;0.40;0.40;;;;;;;;;;5119288;28;20210;-74
2021/04/22 11:10:22;;;;;;;0.13;0.13;;;;;;;;;;5121479;28;20506;-77
2021/04/22 11:12:48;;;;;;;0.10;0.10;;;;;;;;;;5119320;28;20205;-75
2021/04/22 11:15:17;;;;;;;0.10;0.10;;;;;;;;;;5121695;28;20207;-77
2021/04/22 11:17:43;;;;;;;0.10;0.10;;;;;;;;;;5115904;28;20198;-78
2021/04/22 11:20:14;;;;;;;0.10;0.10;;;;;;;;;;5114890;28;20500;-74
2021/04/22 11:22:40;;;;;;;0.10;0.10;;;;;;;;;;5114470;27;20407;-74
2021/04/22 11:25:08;;;;;;;0.10;0.10;;;;;;;;;;5140145;27;20524;-76
2021/04/22 11:27:35;;;;;;;0.00;0.00;;;;;;;;;;5123812;28;20260;-75
2021/04/22 11:30:05;;;;;;;0.10;0.10;;;;;;;;;;5132179;27;20204;-74
2021/04/22 11:32:32;;;;;;;0.10;0.10;;;;;;;;;;5112805;28;20561;-76
2021/04/22 11:35:10;;;;;;;0.10;0.10;;;;;;;;;;5121231;28;20266;-76
2021/04/22 11:37:38;;;;;;;0.10;0.10;;;;;;;;;;5116316;28;20448;-74
2021/04/22 11:40:10;;;;;;;0.10;0.10;;;;;;;;;;5118299;28;20223;-76
2021/04/22 11:42:37;;;;;;;0.10;0.10;;;;;;;;;;5117326;28;20206;-76
2021/04/22 11:45:07;;;;;;;0.10;0.10;;;;;;;;;;5112521;28;20540;-73
2021/04/22 11:47:35;;;;;;;0.10;0.10;;;;;;;;;;5107815;28;20212;-73
2021/04/22 11:50:04;;;;;;;0.10;0.10;;;;;;;;;;5108474;27;20213;-74
2021/04/22 11:52:39;;;;;;;0.10;0.10;;;;;;;;;;5114464;28;20224;-76
2021/04/22 11:55:12;;;;;;;0.00;0.00;;;;;;;;;;5120984;27;20269;-76
2021/04/22 11:57:47;;;;;;;0.10;0.10;;;;;;;;;;5118240;27;20199;-76
2021/04/22 12:00:14;;;;;;;0.10;0.10;;;;;;;;;;5121420;28;20485;-74
2021/04/22 12:02:40;;;;;;;0.10;0.10;;;;;;;;;;5119967;28;20324;-74
2021/04/22 12:05:07;;;;;;;0.67;0.53;;;;;;;;;;5109365;28;20239;-74
2021/04/22 12:07:37;;;;;;;0.33;0.33;;;;;;;;;;5119498;28;20502;-74
2021/04/22 12:10:05;;;;;;;0.10;0.10;;;;;;;;;;5118159;28;20201;-73
2021/04/22 12:12:31;;;;;;;4.50;2.00;;;;;;;;;;5123520;28;20205;-72
2021/04/22 12:14:58;;;;;;;0.20;0.20;;;;;;;;;;5117876;28;20204;-73
2021/04/22 12:17:28;;;;;;;0.10;0.10;;;;;;;;;;5107422;28;20207;-72
2021/04/22 12:19:55;;;;;;;0.10;0.10;;;;;;;;;;5104268;28;20210;-74
2021/04/22 12:22:26;;;;;;;0.10;0.10;;;;;;;;;;5120422;28;20544;-73
2021/04/22 12:24:52;;;;;;;0.10;0.10;;;;;;;;;;5111797;28;20223;-73
2021/04/22 12:27:24;;;;;;;0.10;0.10;;;;;;;;;;5120551;28;20258;-73
2021/04/22 12:29:51;;;;;;;0.10;0.10;;;;;;;;;;5122048;28;20242;-72
2021/04/22 12:32:17;;;;;;;0.10;0.10;;;;;;;;;;5119438;28;20217;-71
2021/04/22 12:34:42;;;;;;;0.10;0.10;;;;;;;;;;5115970;28;20264;-73
2021/04/22 12:37:10;;;;;;;0.10;0.10;;;;;;;;;;5124209;28;20224;-74
2021/04/22 12:39:37;;;;;;;0.10;0.10;;;;;;;;;;5121166;28;20225;-78
2021/04/22 12:42:07;;;;;;;0.57;0.57;;;;;;;;;;5107479;28;20205;-76
2021/04/22 12:44:37;;;;;;;0.10;0.10;;;;;;;;;;5119379;28;20203;-74
2021/04/22 12:47:06;;;;;;;4.50;1.60;;;;;;;;;;5120748;28;20206;-75
2021/04/22 12:49:33;;;;;;;0.10;0.10;;;;;;;;;;5109295;28;20205;-75
2021/04/22 12:52:01;;;;;;;0.10;0.10;;;;;;;;;;5112011;28;20228;-74
2021/04/22 12:54:27;;;;;;;0.13;0.13;;;;;;;;;;5123233;28;20205;-74
2021/04/22 12:56:54;;;;;;;0.10;0.10;;;;;;;;;;5122428;28;20225;-73
2021/04/22 12:59:19;;;;;;;2.33;0.53;;;;;;;;;;5114707;28;20542;-72
2021/04/22 13:01:46;;;;;;;0.10;0.10;;;;;;;;;;5122772;28;20206;-72
2021/04/22 13:04:13;;;;;;;0.10;0.10;;;;;;;;;;5124764;28;20398;-72
2021/04/22 13:06:40;;;;;;;0.20;0.20;;;;;;;;;;5121461;28;20224;-72
2021/04/22 13:09:07;;;;;;;0.10;0.10;;;;;;;;;;5117949;28;20209;-73
2021/04/22 13:11:34;;;;;;;0.10;0.10;;;;;;;;;;5116861;28;20275;-72
2021/04/22 13:14:02;;;;;;;0.10;0.10;;;;;;;;;;5116157;28;20202;-74
2021/04/22 13:16:29;;;;;;;3.53;3.33;;;;;;;;;;5106628;28;20441;-73
2021/04/22 13:18:58;;;;;;;0.10;0.10;;;;;;;;;;5119546;28;20229;-71
2021/04/22 13:21:26;;;;;;;0.20;0.20;;;;;;;;;;5129149;27;20202;-72
2021/04/22 13:23:52;;;;;;;0.40;0.40;;;;;;;;;;5133091;27;20270;-74
2021/04/22 13:26:20;;;;;;;0.10;0.10;;;;;;;;;;5126655;27;20232;-74
2021/04/22 13:28:47;;;;;;;0.10;0.10;;;;;;;;;;5125977;27;20194;-73
2021/04/22 13:31:14;;;;;;;0.10;0.10;;;;;;;;;;5127744;27;20508;-73
2021/04/22 13:33:40;;;;;;;0.10;0.10;;;;;;;;;;5124788;28;20202;-74
2021/04/22 13:36:07;;;;;;;0.10;0.10;;;;;;;;;;5124814;28;20200;-73
2021/04/22 13:38:34;;;;;;;3.10;2.90;;;;;;;;;;5124733;27;20214;-73
2021/04/22 13:41:08;;;;;;;0.10;0.10;;;;;;;;;;5113111;27;20498;-74
2021/04/22 13:43:35;;;;;;;0.10;0.10;;;;;;;;;;5111426;28;20199;-74
2021/04/22 13:46:02;;;;;;;0.20;0.20;;;;;;;;;;5133407;27;20224;-76
2021/04/22 13:48:31;;;;;;;0.10;0.10;;;;;;;;;;5126376;28;20200;-73
2021/04/22 13:51:08;;;;;;;0.10;0.10;;;;;;;;;;5122784;28;20211;-74
2021/04/22 13:53:35;;;;;;;0.10;0.10;;;;;;;;;;5127724;27;20264;-74
2021/04/22 13:56:01;;;;;;;0.10;0.10;;;;;;;;;;5120565;28;20328;-73
2021/04/22 13:58:29;;;;;;;0.10;0.10;;;;;;;;;;5123598;28;20293;-75
2021/04/22 14:00:55;;;;;;;2.63;2.50;;;;;;;;;;5123546;28;20210;-74
2021/04/22 14:03:21;;;;;;;0.10;0.10;;;;;;;;;;5119905;27;20232;-73
2021/04/22 14:05:47;;;;;;;0.10;0.10;;;;;;;;;;5114756;27;20221;-74
2021/04/22 14:08:13;;;;;;;0.10;0.10;;;;;;;;;;5111302;27;20588;-73
2021/04/22 14:10:40;;;;;;;0.10;0.10;;;;;;;;;;5114537;28;20399;-74
2021/04/22 14:13:17;;;;;;;0.50;0.50;;;;;;;;;;5111272;28;20490;-73
2021/04/22 14:15:43;;;;;;;0.20;0.20;;;;;;;;;;5113704;28;20561;-77
2021/04/22 14:18:09;;;;;;;0.10;0.10;;;;;;;;;;5107039;28;20291;-72
2021/04/22 14:20:36;;;;;;;0.10;0.10;;;;;;;;;;5121561;28;20212;-72
2021/04/22 14:23:02;;;;;;;0.10;0.10;;;;;;;;;;5125208;28;20298;-73
2021/04/22 14:25:28;;;;;;;0.20;0.20;;;;;;;;;;5123088;28;20225;-73
2021/04/22 14:27:55;;;;;;;0.10;0.10;;;;;;;;;;5118271;28;20566;-73
2021/04/22 14:30:21;;;;;;;0.10;0.10;;;;;;;;;;5118777;28;20241;-73
2021/04/22 14:32:48;;;;;;;0.10;0.10;;;;;;;;;;5111031;28;20205;-74
2021/04/22 14:35:14;;;;;;;0.80;0.80;;;;;;;;;;5115161;27;20216;-72
2021/04/22 14:37:40;;;;;;;1.30;1.20;;;;;;;;;;5115208;27;20519;-72
2021/04/22 14:40:08;;;;;;;0.10;0.10;;;;;;;;;;5112305;28;20533;-75